Time;durP1;ratioP1;P1;durP2;ratioP2;P2;SDS_P1;SDS_P2;PMS_P1;PMS_P2;Temp;Humidity;BMP_temperature;BMP_pressure;BME280_temperature;BME280_humidity;BME280_pressure;Samples;Min_cycle;Max_cycle;Signal;HPM_P1;HPM_P2
2022/03/21 00:00:27;;;;;;;;;;;18.70;58.10;;;;;;5038825;28;1141;-70
2022/03/21 00:02:53;;;;;;;;;;;18.70;58.10;;;;;;5038808;28;1278;-70
2022/03/21 00:05:18;;;;;;;;;;;18.70;58.10;;;;;;5021569;28;839;-70
2022/03/21 00:07:44;;;;;;;;;;;18.80;58.20;;;;;;5038652;28;875;-70
2022/03/21 00:10:09;;;;;;;;;;;18.70;58.10;;;;;;5038695;28;883;-70
2022/03/21 00:12:35;;;;;;;;;;;18.70;58.10;;;;;;5034675;28;1209;-69
2022/03/21 00:15:00;;;;;;;;;;;18.70;58.10;;;;;;5018067;28;1891;-69
2022/03/21 00:17:26;;;;;;;;;;;18.70;58.10;;;;;;5035383;28;1018;-69
2022/03/21 00:19:51;;;;;;;;;;;18.70;58.10;;;;;;5035820;28;784;-69
2022/03/21 00:22:17;;;;;;;;;;;18.70;58.10;;;;;;5035658;28;680;-69
2022/03/21 00:24:43;;;;;;;;;;;18.70;58.10;;;;;;5035498;28;1275;-69
2022/03/21 00:27:12;;;;;;;;;;;18.70;58.10;;;;;;5035366;28;895;-69
2022/03/21 00:29:38;;;;;;;;;;;18.70;58.10;;;;;;5017564;28;1347;-70
2022/03/21 00:32:05;;;;;;;;;;;18.70;58.10;;;;;;5035416;28;812;-70
2022/03/21 00:34:31;;;;;;;;;;;18.70;58.10;;;;;;5017600;28;1902;-70
2022/03/21 00:36:57;;;;;;;;;;;18.70;58.10;;;;;;5009451;28;1349;-70
2022/03/21 00:39:22;;;;;;;;;;;18.70;58.10;;;;;;5035072;28;815;-70
2022/03/21 00:41:48;;;;;;;;;;;18.70;58.20;;;;;;5017352;28;1395;-69
2022/03/21 00:44:13;;;;;;;;;;;18.70;58.10;;;;;;5034597;28;1196;-69
2022/03/21 00:46:39;;;;;;;;;;;18.70;58.10;;;;;;5033144;28;865;-69
2022/03/21 00:49:08;;;;;;;;;;;18.70;58.10;;;;;;5033710;28;757;-69
2022/03/21 00:51:33;;;;;;;;;;;18.70;58.20;;;;;;5034820;28;855;-69
2022/03/21 00:53:59;;;;;;;;;;;18.70;58.20;;;;;;5034874;28;1906;-69
2022/03/21 00:56:24;;;;;;;;;;;18.70;58.20;;;;;;5034876;28;892;-69
2022/03/21 00:58:49;;;;;;;;;;;18.70;58.20;;;;;;5034795;28;910;-69
2022/03/21 01:01:15;;;;;;;;;;;18.70;58.20;;;;;;5034809;28;831;-69
2022/03/21 01:03:40;;;;;;;;;;;18.70;58.20;;;;;;5028443;28;1271;-69
2022/03/21 01:06:06;;;;;;;;;;;18.70;58.20;;;;;;5034548;28;747;-69
2022/03/21 01:08:31;;;;;;;;;;;18.70;58.20;;;;;;5034794;28;687;-70
2022/03/21 01:10:57;;;;;;;;;;;18.70;58.20;;;;;;5034650;28;953;-70
2022/03/21 01:13:22;;;;;;;;;;;18.70;58.20;;;;;;5033283;28;2005;-69
2022/03/21 01:15:47;;;;;;;;;;;18.70;58.20;;;;;;5034342;28;835;-70
2022/03/21 01:18:13;;;;;;;;;;;18.70;58.20;;;;;;5034761;28;839;-69
2022/03/21 01:20:38;;;;;;;;;;;18.70;58.20;;;;;;5034595;28;838;-69
2022/03/21 01:23:04;;;;;;;;;;;18.70;58.50;;;;;;5032813;28;1189;-69
2022/03/21 01:25:30;;;;;;;;;;;18.70;58.30;;;;;;5034280;28;942;-69
2022/03/21 01:27:55;;;;;;;;;;;18.70;58.20;;;;;;5033610;28;924;-69
2022/03/21 01:30:21;;;;;;;;;;;18.60;58.20;;;;;;5034194;28;1033;-70
2022/03/21 01:32:46;;;;;;;;;;;18.70;58.20;;;;;;5034302;28;1197;-68
2022/03/21 01:35:12;;;;;;;;;;;18.60;58.20;;;;;;5034199;28;1898;-69
2022/03/21 01:37:38;;;;;;;;;;;18.60;58.20;;;;;;5018503;28;1126;-69
2022/03/21 01:40:03;;;;;;;;;;;18.60;58.20;;;;;;5034136;28;911;-69
2022/03/21 01:42:29;;;;;;;;;;;18.60;58.20;;;;;;5016674;28;1211;-69
2022/03/21 01:44:57;;;;;;;;;;;18.60;58.20;;;;;;5033953;28;862;-70
2022/03/21 01:47:24;;;;;;;;;;;18.60;58.20;;;;;;5034105;28;741;-68
2022/03/21 01:49:50;;;;;;;;;;;18.60;58.20;;;;;;5034010;28;827;-68
2022/03/21 01:52:15;;;;;;;;;;;18.60;58.20;;;;;;5016340;28;1209;-68
2022/03/21 01:57:25;;;;;;;;;;;18.60;58.30;;;;;;5018535;28;630;-68
2022/03/21 01:59:50;;;;;;;;;;;18.60;58.20;;;;;;5033826;28;790;-68
2022/03/21 02:02:15;;;;;;;;;;;18.60;58.20;;;;;;5033998;28;1163;-68
2022/03/21 02:04:42;;;;;;;;;;;18.60;58.20;;;;;;5033590;28;1275;-68
2022/03/21 02:07:07;;;;;;;;;;;18.60;58.30;;;;;;5015820;28;903;-69
2022/03/21 02:09:33;;;;;;;;;;;18.60;58.30;;;;;;5033607;28;1072;-68
2022/03/21 02:11:58;;;;;;;;;;;18.60;58.30;;;;;;5015803;28;880;-68
2022/03/21 02:14:24;;;;;;;;;;;18.60;58.30;;;;;;5033221;28;1910;-68
2022/03/21 02:16:49;;;;;;;;;;;18.60;58.30;;;;;;5015696;28;1058;-69
2022/03/21 02:19:17;;;;;;;;;;;18.60;58.30;;;;;;5033472;28;1041;-69
2022/03/21 02:21:42;;;;;;;;;;;18.60;58.30;;;;;;5033568;28;1033;-69
2022/03/21 02:24:21;;;;;;;;;;;18.60;58.30;;;;;;5033514;28;1248;-69
2022/03/21 02:26:47;;;;;;;;;;;18.60;58.30;;;;;;5033215;28;858;-69
2022/03/21 02:29:13;;;;;;;;;;;18.60;58.30;;;;;;5033494;28;857;-69
2022/03/21 02:31:38;;;;;;;;;;;18.60;58.30;;;;;;5015707;28;797;-69
2022/03/21 02:34:04;;;;;;;;;;;18.60;58.30;;;;;;5014538;28;1906;-71
2022/03/21 02:36:29;;;;;;;;;;;18.60;58.30;;;;;;5033028;28;1206;-71
2022/03/21 02:38:55;;;;;;;;;;;18.60;58.20;;;;;;5031761;28;720;-71
2022/03/21 02:41:20;;;;;;;;;;;18.60;58.20;;;;;;5031879;28;764;-71
2022/03/21 02:43:50;;;;;;;;;;;18.60;58.20;;;;;;5031889;28;1229;-71
2022/03/21 02:46:17;;;;;;;;;;;18.60;58.20;;;;;;5032948;28;949;-70
2022/03/21 02:48:44;;;;;;;;;;;18.70;58.10;;;;;;5033161;28;823;-70
2022/03/21 02:51:09;;;;;;;;;;;18.70;58.10;;;;;;5031862;28;1030;-70
2022/03/21 02:53:35;;;;;;;;;;;18.70;58.00;;;;;;5022990;28;1914;-70
2022/03/21 02:56:00;;;;;;;;;;;18.80;58.00;;;;;;5014927;28;812;-70
2022/03/21 02:58:26;;;;;;;;;;;18.80;57.90;;;;;;5032970;28;907;-70
2022/03/21 03:00:51;;;;;;;;;;;18.80;57.80;;;;;;5039390;28;1271;-71
2022/03/21 03:03:17;;;;;;;;;;;18.80;57.70;;;;;;5035017;28;1284;-70
2022/03/21 03:05:42;;;;;;;;;;;18.80;57.70;;;;;;5015060;28;792;-70
2022/03/21 03:08:07;;;;;;;;;;;18.90;57.70;;;;;;5032699;28;970;-70
2022/03/21 03:10:33;;;;;;;;;;;18.90;57.60;;;;;;5032729;28;878;-69
2022/03/21 03:12:58;;;;;;;;;;;18.90;57.50;;;;;;5015130;28;1936;-70
2022/03/21 03:15:24;;;;;;;;;;;18.90;57.50;;;;;;5015313;28;891;-69
2022/03/21 03:17:49;;;;;;;;;;;18.90;57.40;;;;;;5032906;28;823;-70
2022/03/21 03:20:15;;;;;;;;;;;18.90;57.30;;;;;;5035407;28;1256;-68
2022/03/21 03:22:40;;;;;;;;;;;18.90;57.30;;;;;;5023914;28;1361;-71
2022/03/21 03:25:06;;;;;;;;;;;19.00;57.30;;;;;;5042092;28;1215;-70
2022/03/21 03:27:31;;;;;;;;;;;19.00;57.30;;;;;;5024258;28;1491;-69
2022/03/21 03:29:57;;;;;;;;;;;19.00;57.30;;;;;;5032611;28;874;-70
2022/03/21 03:32:23;;;;;;;;;;;19.00;57.30;;;;;;5015216;28;800;-70
2022/03/21 03:34:49;;;;;;;;;;;19.00;57.30;;;;;;5056940;22;1966;-72
2022/03/21 03:37:15;;;;;;;;;;;19.00;57.20;;;;;;5031290;28;906;-72
2022/03/21 03:39:40;;;;;;;;;;;19.00;57.20;;;;;;5032846;28;803;-72
2022/03/21 03:42:06;;;;;;;;;;;19.00;57.20;;;;;;5031588;28;894;-72
2022/03/21 03:44:31;;;;;;;;;;;19.00;57.20;;;;;;5032691;28;1284;-72
2022/03/21 03:46:57;;;;;;;;;;;19.00;57.20;;;;;;5019031;28;1117;-71
2022/03/21 03:49:23;;;;;;;;;;;19.00;57.20;;;;;;5016501;28;822;-69
2022/03/21 03:51:49;;;;;;;;;;;19.00;57.20;;;;;;5016671;28;1072;-70
2022/03/21 03:54:14;;;;;;;;;;;19.00;57.20;;;;;;5033229;28;1965;-70
2022/03/21 03:56:40;;;;;;;;;;;19.00;57.20;;;;;;5036120;28;788;-70
2022/03/21 03:59:05;;;;;;;;;;;19.00;57.20;;;;;;5034881;28;966;-70
2022/03/21 04:01:31;;;;;;;;;;;19.00;57.20;;;;;;5018339;28;847;-71
2022/03/21 04:03:59;;;;;;;;;;;19.00;57.10;;;;;;5035951;28;1259;-70
2022/03/21 04:06:25;;;;;;;;;;;19.00;57.20;;;;;;5035886;28;847;-70
2022/03/21 04:08:51;;;;;;;;;;;19.00;57.10;;;;;;5034796;28;843;-70
2022/03/21 04:11:16;;;;;;;;;;;19.00;57.10;;;;;;5018211;28;1699;-70
2022/03/21 04:13:42;;;;;;;;;;;19.00;57.10;;;;;;5034678;28;1957;-70
2022/03/21 04:16:07;;;;;;;;;;;19.00;57.10;;;;;;5017956;28;1236;-70
2022/03/21 04:18:33;;;;;;;;;;;19.00;57.10;;;;;;5034780;28;854;-70
2022/03/21 04:20:58;;;;;;;;;;;19.10;57.10;;;;;;5034414;28;1082;-70
2022/03/21 04:23:24;;;;;;;;;;;19.10;57.10;;;;;;5034463;28;1603;-70
2022/03/21 04:25:49;;;;;;;;;;;19.10;57.10;;;;;;5035512;28;772;-70
2022/03/21 04:28:15;;;;;;;;;;;19.10;57.10;;;;;;5035898;28;879;-70
2022/03/21 04:30:41;;;;;;;;;;;19.10;57.10;;;;;;5034547;28;977;-70
2022/03/21 04:33:09;;;;;;;;;;;19.10;57.10;;;;;;5034300;28;1902;-70
2022/03/21 04:35:34;;;;;;;;;;;19.10;57.10;;;;;;5033941;28;1270;-70
2022/03/21 04:38:00;;;;;;;;;;;19.10;57.00;;;;;;5034115;28;1060;-70
2022/03/21 04:40:26;;;;;;;;;;;19.10;57.00;;;;;;5034081;28;823;-71
2022/03/21 04:42:51;;;;;;;;;;;19.10;57.00;;;;;;5034229;28;1323;-70
2022/03/21 04:45:17;;;;;;;;;;;19.10;57.00;;;;;;5035384;28;694;-70
2022/03/21 04:47:43;;;;;;;;;;;19.10;57.00;;;;;;5035056;28;950;-70
2022/03/21 04:50:08;;;;;;;;;;;19.10;57.00;;;;;;5034970;28;850;-70
2022/03/21 04:52:34;;;;;;;;;;;19.10;56.90;;;;;;5033815;28;1190;-71
2022/03/21 04:55:00;;;;;;;;;;;19.10;56.90;;;;;;5033691;28;1961;-70
2022/03/21 04:57:26;;;;;;;;;;;19.10;56.90;;;;;;5034541;28;741;-70
2022/03/21 04:59:52;;;;;;;;;;;19.10;56.90;;;;;;5034981;28;698;-70
2022/03/21 05:02:17;;;;;;;;;;;19.10;56.90;;;;;;5033834;28;1099;-70
2022/03/21 05:04:43;;;;;;;;;;;19.10;56.90;;;;;;5034804;28;1307;-70
2022/03/21 05:07:12;;;;;;;;;;;19.10;56.90;;;;;;5034894;28;1033;-70
2022/03/21 05:09:39;;;;;;;;;;;19.10;56.90;;;;;;5034903;28;823;-70
2022/03/21 05:12:04;;;;;;;;;;;19.10;56.90;;;;;;5034803;28;902;-70
2022/03/21 05:14:30;;;;;;;;;;;19.10;56.90;;;;;;5034539;28;1957;-70
2022/03/21 05:16:55;;;;;;;;;;;19.10;56.90;;;;;;5034618;28;982;-70
2022/03/21 05:19:21;;;;;;;;;;;19.10;56.90;;;;;;5034526;28;1054;-70
2022/03/21 05:21:46;;;;;;;;;;;19.10;56.90;;;;;;5034650;28;966;-70
2022/03/21 05:32:24;;;;;;;;;;;19.10;56.80;;;;;;5047706;28;716;-70
2022/03/21 05:37:34;;;;;;;;;;;19.10;56.80;;;;;;5034105;28;1107;-70
2022/03/21 05:42:44;;;;;;;;;;;19.10;56.80;;;;;;5033334;28;1271;-70
2022/03/21 05:45:10;;;;;;;;;;;19.10;56.80;;;;;;5034440;28;934;-70
2022/03/21 05:48:50;;;;;;;;;;;19.10;56.80;;;;;;5032846;28;903;-70
2022/03/21 05:50:21;;;;;;;;;;;19.10;56.90;;;;;;5033904;28;1098;-69
2022/03/21 05:52:46;;;;;;;;;;;19.10;56.80;;;;;;5033926;28;1188;-69
2022/03/21 05:55:12;;;;;;;;;;;19.10;56.80;;;;;;5034025;28;1983;-70
2022/03/21 05:57:37;;;;;;;;;;;19.10;56.80;;;;;;5033852;28;1086;-70
2022/03/21 06:00:21;;;;;;;;;;;19.10;56.80;;;;;;5034262;28;750;-70
2022/03/21 06:02:47;;;;;;;;;;;19.10;56.80;;;;;;5034419;28;1229;-70
2022/03/21 06:05:12;;;;;;;;;;;19.10;56.80;;;;;;5033605;28;803;-70
2022/03/21 06:07:38;;;;;;;;;;;19.10;56.80;;;;;;5032481;28;962;-70
2022/03/21 06:10:09;;;;;;;;;;;19.10;56.80;;;;;;5048189;28;1069;-70
2022/03/21 06:12:34;;;;;;;;;;;19.10;56.80;;;;;;5048336;28;1289;-70
2022/03/21 06:15:00;;;;;;;;;;;19.10;56.80;;;;;;5033445;28;1894;-69
2022/03/21 06:17:25;;;;;;;;;;;19.10;57.40;;;;;;5033435;28;963;-70
2022/03/21 06:19:51;;;;;;;;;;;19.10;56.80;;;;;;5033409;28;890;-71
2022/03/21 06:22:17;;;;;;;;;;;19.20;56.80;;;;;;5048943;28;847;-71
2022/03/21 06:24:42;;;;;;;;;;;19.10;56.80;;;;;;5033523;28;1279;-67
2022/03/21 06:27:07;;;;;;;;;;;19.10;56.80;;;;;;5019509;28;1834;-66
2022/03/21 06:29:33;;;;;;;;;;;19.20;56.80;;;;;;5030696;28;1896;-66
2022/03/21 06:31:58;;;;;;;;;;;19.10;56.70;;;;;;5031468;28;1060;-66
2022/03/21 06:34:24;;;;;;;;;;;19.10;56.70;;;;;;5031410;28;1954;-68
2022/03/21 06:36:49;;;;;;;;;;;19.20;56.80;;;;;;5031746;28;1123;-67
2022/03/21 06:39:14;;;;;;;;;;;19.10;56.70;;;;;;5033072;28;1243;-69
2022/03/21 06:41:44;;;;;;;;;;;19.10;56.70;;;;;;5033301;28;875;-70
2022/03/21 06:44:09;;;;;;;;;;;19.10;57.00;;;;;;5033218;28;1239;-70
2022/03/21 06:46:35;;;;;;;;;;;19.20;56.80;;;;;;5031691;28;1010;-69
2022/03/21 06:49:00;;;;;;;;;;;19.10;56.70;;;;;;5031650;28;879;-68
2022/03/21 06:51:26;;;;;;;;;;;19.10;56.70;;;;;;5033071;28;796;-69
2022/03/21 06:53:51;;;;;;;;;;;19.10;56.70;;;;;;5028395;28;1902;-71
2022/03/21 06:56:17;;;;;;;;;;;19.10;56.70;;;;;;5013127;28;823;-70
2022/03/21 06:58:42;;;;;;;;;;;19.10;56.70;;;;;;5013417;28;683;-70
2022/03/21 07:01:08;;;;;;;;;;;19.10;56.80;;;;;;5013256;28;707;-71
2022/03/21 07:03:33;;;;;;;;;;;19.10;56.80;;;;;;5013070;28;1213;-72
2022/03/21 07:05:59;;;;;;;;;;;19.20;56.80;;;;;;5013082;28;826;-72
2022/03/21 07:08:24;;;;;;;;;;;19.10;56.70;;;;;;5013242;28;1001;-71
2022/03/21 07:10:50;;;;;;;;;;;19.10;56.70;;;;;;5011905;28;874;-70
2022/03/21 07:13:15;;;;;;;;;;;19.10;56.70;;;;;;5011800;28;1887;-70
2022/03/21 07:15:41;;;;;;;;;;;19.10;56.70;;;;;;5013315;28;792;-69
2022/03/21 07:18:06;;;;;;;;;;;19.10;56.80;;;;;;5012985;28;847;-70
2022/03/21 07:20:32;;;;;;;;;;;19.10;56.80;;;;;;5028559;28;1675;-66
2022/03/21 07:22:58;;;;;;;;;;;19.10;56.70;;;;;;5035624;28;1243;-70
2022/03/21 07:25:23;;;;;;;;;;;19.10;56.80;;;;;;5035388;28;1254;-73
2022/03/21 07:27:48;;;;;;;;;;;19.10;56.80;;;;;;5035291;28;1022;-71
2022/03/21 07:30:14;;;;;;;;;;;19.10;56.80;;;;;;5036599;28;927;-72
2022/03/21 07:32:40;;;;;;;;;;;19.10;56.80;;;;;;5035176;28;1364;-70
2022/03/21 07:35:07;;;;;;;;;;;19.10;56.70;;;;;;5036020;28;1971;-72
2022/03/21 07:37:46;;;;;;;;;;;19.10;56.70;;;;;;5034962;28;1191;-68
2022/03/21 07:40:11;;;;;;;;;;;19.10;56.80;;;;;;5036411;28;823;-68
2022/03/21 07:42:38;;;;;;;;;;;19.10;56.80;;;;;;5035278;28;816;-67
2022/03/21 07:47:48;;;;;;;;;;;19.10;56.80;;;;;;5036962;28;705;-68
2022/03/21 07:50:13;;;;;;;;;;;19.10;56.80;;;;;;5036292;28;859;-68
2022/03/21 07:52:39;;;;;;;;;;;19.10;56.80;;;;;;5036329;28;1163;-68
2022/03/21 07:55:04;;;;;;;;;;;19.10;56.80;;;;;;5036113;28;1898;-68
2022/03/21 07:57:30;;;;;;;;;;;19.10;56.80;;;;;;5035731;28;909;-70
2022/03/21 07:59:55;;;;;;;;;;;19.10;56.80;;;;;;5035412;28;954;-69
2022/03/21 08:02:21;;;;;;;;;;;19.10;56.80;;;;;;5035630;28;1162;-70
2022/03/21 08:04:50;;;;;;;;;;;19.10;56.80;;;;;;5029804;28;2294;-69
2022/03/21 08:07:15;;;;;;;;;;;19.10;56.80;;;;;;5027033;28;1227;-70
2022/03/21 08:09:41;;;;;;;;;;;19.10;56.80;;;;;;5035877;28;1216;-70
2022/03/21 08:12:07;;;;;;;;;;;19.10;56.80;;;;;;5031339;28;1278;-70
2022/03/21 08:14:32;;;;;;;;;;;19.10;56.70;;;;;;5016084;28;1894;-69
2022/03/21 08:16:59;;;;;;;;;;;19.10;56.70;;;;;;5015775;28;950;-70
2022/03/21 08:19:25;;;;;;;;;;;19.20;56.80;;;;;;5016149;28;875;-70
2022/03/21 08:21:53;;;;;;;;;;;19.30;56.70;;;;;;5015889;28;855;-70
2022/03/21 08:24:19;;;;;;;;;;;19.40;56.60;;;;;;5016020;28;1196;-70
2022/03/21 08:26:44;;;;;;;;;;;19.50;56.50;;;;;;5030824;28;847;-71
2022/03/21 08:29:10;;;;;;;;;;;19.60;56.30;;;;;;5015827;28;788;-70
2022/03/21 08:31:35;;;;;;;;;;;19.70;56.10;;;;;;5015187;28;684;-69
2022/03/21 08:34:03;;;;;;;;;;;19.80;55.80;;;;;;5014963;28;1907;-70
2022/03/21 08:36:28;;;;;;;;;;;19.90;55.60;;;;;;5023436;28;1198;-70
2022/03/21 08:38:54;;;;;;;;;;;20.00;55.30;;;;;;5034243;28;833;-70
2022/03/21 08:41:21;;;;;;;;;;;20.10;55.10;;;;;;5035208;28;828;-69
2022/03/21 08:43:47;;;;;;;;;;;20.20;55.00;;;;;;5035198;28;1220;-69
2022/03/21 08:46:12;;;;;;;;;;;20.20;54.80;;;;;;5034970;28;1001;-69
2022/03/21 08:49:23;;;;;;;;;;;20.20;54.70;;;;;;5035286;28;931;-70
2022/03/21 08:51:26;;;;;;;;;;;20.20;54.70;;;;;;5035058;28;1042;-70
2022/03/21 08:53:52;;;;;;;;;;;20.30;54.70;;;;;;5034995;28;1910;-70
2022/03/21 08:56:17;;;;;;;;;;;20.30;55.30;;;;;;5034745;28;898;-69
2022/03/21 08:58:43;;;;;;;;;;;20.30;54.60;;;;;;5035180;28;793;-69
2022/03/21 09:01:08;;;;;;;;;;;20.30;54.60;;;;;;5034875;28;800;-70
2022/03/21 09:03:34;;;;;;;;;;;20.30;54.50;;;;;;5044277;28;1311;-70
2022/03/21 09:05:59;;;;;;;;;;;20.30;54.50;;;;;;5034684;28;876;-70
2022/03/21 09:08:25;;;;;;;;;;;20.30;54.50;;;;;;5034830;28;914;-70
2022/03/21 09:10:52;;;;;;;;;;;20.30;54.50;;;;;;5034754;28;898;-69
2022/03/21 09:13:17;;;;;;;;;;;20.20;54.50;;;;;;5034728;28;1871;-70
2022/03/21 09:15:43;;;;;;;;;;;20.20;54.60;;;;;;5034455;28;1012;-70
2022/03/21 09:18:08;;;;;;;;;;;20.20;54.70;;;;;;5034725;28;1107;-70
2022/03/21 09:20:33;;;;;;;;;;;20.20;54.70;;;;;;5034574;28;631;-70
2022/03/21 09:22:59;;;;;;;;;;;20.20;54.80;;;;;;5034431;28;1213;-70
2022/03/21 09:25:24;;;;;;;;;;;20.20;54.90;;;;;;5034440;28;846;-70
2022/03/21 09:27:50;;;;;;;;;;;20.10;54.90;;;;;;5034619;28;716;-70
2022/03/21 09:30:16;;;;;;;;;;;20.10;55.00;;;;;;5034539;28;729;-70
2022/03/21 09:32:42;;;;;;;;;;;20.10;55.00;;;;;;5049780;28;862;-70
2022/03/21 09:35:07;;;;;;;;;;;20.10;55.10;;;;;;5062941;22;2026;-71
2022/03/21 09:37:33;;;;;;;;;;;20.10;55.20;;;;;;5051590;28;1682;-70
2022/03/21 09:39:58;;;;;;;;;;;20.00;55.20;;;;;;5052624;28;2189;-71
2022/03/21 09:42:24;;;;;;;;;;;20.00;55.20;;;;;;5052000;28;1305;-71
2022/03/21 09:44:52;;;;;;;;;;;20.00;55.30;;;;;;5052402;28;1222;-71
2022/03/21 09:50:02;;;;;;;;;;;19.90;55.40;;;;;;5053133;28;775;-71
2022/03/21 09:52:27;;;;;;;;;;;19.90;55.50;;;;;;5052644;28;1139;-71
2022/03/21 09:54:53;;;;;;;;;;;19.90;55.50;;;;;;5052443;28;1910;-70
2022/03/21 09:57:19;;;;;;;;;;;19.90;55.60;;;;;;5053513;28;894;-71
2022/03/21 09:59:44;;;;;;;;;;;19.90;55.70;;;;;;5053864;28;823;-71
2022/03/21 10:02:14;;;;;;;;;;;19.80;55.70;;;;;;5053455;28;1103;-71
2022/03/21 10:04:39;;;;;;;;;;;19.80;55.70;;;;;;5052250;28;1299;-71
2022/03/21 10:07:05;;;;;;;;;;;19.80;55.80;;;;;;5053211;28;857;-71
2022/03/21 10:09:30;;;;;;;;;;;19.80;55.90;;;;;;5053517;28;835;-71
2022/03/21 10:11:57;;;;;;;;;;;19.70;55.90;;;;;;5052306;28;1021;-70
2022/03/21 10:14:32;;;;;;;;;;;19.70;55.90;;;;;;5052311;28;1955;-70
2022/03/21 10:16:59;;;;;;;;;;;19.70;56.00;;;;;;5035367;28;1172;-70
2022/03/21 10:19:24;;;;;;;;;;;19.70;56.10;;;;;;5053356;28;872;-70
2022/03/21 10:21:59;;;;;;;;;;;19.60;56.70;;;;;;5052043;28;1154;-71
2022/03/21 10:24:25;;;;;;;;;;;19.60;56.10;;;;;;5052190;28;1213;-70
2022/03/21 10:26:50;;;;;;;;;;;19.60;56.20;;;;;;5053051;28;799;-70
2022/03/21 10:29:16;;;;;;;;;;;19.60;56.30;;;;;;5035885;28;881;-70
2022/03/21 10:31:52;;;;;;;;;;;19.60;56.30;;;;;;5053300;28;886;-72
2022/03/21 10:34:18;;;;;;;;;;;19.60;56.40;;;;;;5053343;28;1938;-71
2022/03/21 10:37:00;;;;;;;;;;;19.50;51.70;;;;;;5058654;28;1208;-72
2022/03/21 10:39:25;;;;;;;;;;;19.50;47.40;;;;;;5069454;28;938;-72
2022/03/21 10:42:17;;;;;;;;;;;19.40;41.40;;;;;;5069749;28;815;-72
2022/03/21 10:44:52;;;;;;;;;;;19.30;38.40;;;;;;5051802;28;1260;-72
2022/03/21 10:47:18;;;;;;;;;;;19.20;38.40;;;;;;5068269;28;1044;-71
2022/03/21 10:49:44;;;;;;;;;;;19.10;38.00;;;;;;5067759;28;1886;-70
2022/03/21 10:52:17;;;;;;;;;;;19.10;37.40;;;;;;5051745;28;1336;-70
2022/03/21 10:54:43;;;;;;;;;;;19.10;39.10;;;;;;5051167;28;1910;-70
2022/03/21 10:57:25;;;;;;;;;;;19.10;40.20;;;;;;5051133;28;1181;-70
2022/03/21 10:59:50;;;;;;;;;;;19.10;41.60;;;;;;5052880;28;893;-70
2022/03/21 11:02:17;;;;;;;;;;;19.10;42.80;;;;;;5052709;28;1224;-70
2022/03/21 11:04:44;;;;;;;;;;;19.10;43.50;;;;;;5052855;28;1261;-70
2022/03/21 11:07:11;;;;;;;;;;;19.10;44.10;;;;;;5067985;28;1348;-70
2022/03/21 11:09:37;;;;;;;;;;;19.10;44.80;;;;;;5035349;28;1313;-70
2022/03/21 11:12:03;;;;;;;;;;;19.10;45.40;;;;;;5052736;28;1026;-70
2022/03/21 11:14:28;;;;;;;;;;;19.10;46.10;;;;;;5051320;28;1894;-70
2022/03/21 11:16:54;;;;;;;;;;;19.00;46.40;;;;;;5052448;28;910;-70
2022/03/21 11:19:19;;;;;;;;;;;19.00;46.90;;;;;;5052810;28;922;-70
2022/03/21 11:21:45;;;;;;;;;;;19.00;47.30;;;;;;5051420;28;1005;-70
2022/03/21 11:24:12;;;;;;;;;;;19.00;47.70;;;;;;5052442;28;1217;-69
2022/03/21 11:26:43;;;;;;;;;;;19.00;48.10;;;;;;5052308;28;889;-70
2022/03/21 11:29:17;;;;;;;;;;;19.00;48.40;;;;;;5052541;28;815;-71
2022/03/21 11:31:52;;;;;;;;;;;19.00;48.80;;;;;;5047508;28;2159;-71
2022/03/21 11:34:23;;;;;;;;;;;19.00;49.10;;;;;;5050599;28;1969;-71
2022/03/21 11:36:49;;;;;;;;;;;19.00;49.40;;;;;;5051249;28;1106;-70
2022/03/21 11:39:14;;;;;;;;;;;19.00;49.60;;;;;;5051649;28;870;-71
2022/03/21 11:41:39;;;;;;;;;;;19.00;49.80;;;;;;5030202;28;1164;-72
2022/03/21 11:44:14;;;;;;;;;;;18.90;50.30;;;;;;5049361;28;1940;-71
2022/03/21 11:46:40;;;;;;;;;;;18.90;50.20;;;;;;5049854;28;1117;-71
2022/03/21 11:49:18;;;;;;;;;;;18.90;50.50;;;;;;5046739;28;1330;-71
2022/03/21 11:51:44;;;;;;;;;;;18.90;50.60;;;;;;5031589;28;796;-71
2022/03/21 11:54:25;;;;;;;;;;;18.90;50.80;;;;;;5050026;28;1902;-72
2022/03/21 11:56:53;;;;;;;;;;;18.90;51.00;;;;;;5051203;28;1032;-71
2022/03/21 11:59:34;;;;;;;;;;;18.90;51.20;;;;;;5051211;28;1009;-72
2022/03/21 12:02:25;;;;;;;;;;;18.90;51.30;;;;;;5049977;28;1375;-72
2022/03/21 12:04:57;;;;;;;;;;;18.90;51.50;;;;;;5051255;28;1303;-71
2022/03/21 12:07:22;;;;;;;;;;;18.90;52.30;;;;;;5051940;28;791;-72
2022/03/21 12:09:48;;;;;;;;;;;18.90;51.80;;;;;;5054510;28;949;-72
2022/03/21 12:12:14;;;;;;;;;;;18.90;52.00;;;;;;5053500;28;1284;-72
2022/03/21 12:14:40;;;;;;;;;;;18.80;52.00;;;;;;5054426;28;1898;-72
2022/03/21 12:17:12;;;;;;;;;;;18.80;52.20;;;;;;5053272;28;812;-72
2022/03/21 12:19:54;;;;;;;;;;;18.80;52.30;;;;;;5053881;28;2229;-72
2022/03/21 12:25:01;;;;;;;;;;;18.80;52.50;;;;;;5054776;28;1209;-72
2022/03/21 12:27:29;;;;;;;;;;;18.80;52.60;;;;;;5052861;28;937;-72
2022/03/21 12:30:15;;;;;;;;;;;18.80;52.60;;;;;;5054453;28;1044;-73
2022/03/21 12:33:06;;;;;;;;;;;18.80;52.80;;;;;;5054040;28;1177;-72
2022/03/21 12:35:32;;;;;;;;;;;18.80;52.80;;;;;;5017006;28;1011694;-73
2022/03/21 12:38:10;;;;;;;;;;;18.80;52.90;;;;;;5055844;28;989;-72
2022/03/21 12:40:55;;;;;;;;;;;18.80;53.00;;;;;;5054074;28;896;-72
2022/03/21 12:43:24;;;;;;;;;;;18.80;53.10;;;;;;5055216;28;1259;-73
2022/03/21 12:45:50;;;;;;;;;;;18.80;53.20;;;;;;5054938;28;847;-72
2022/03/21 12:48:17;;;;;;;;;;;18.80;53.20;;;;;;5054263;28;801;-72
2022/03/21 12:50:43;;;;;;;;;;;18.70;53.30;;;;;;5055175;28;870;-72
2022/03/21 12:53:09;;;;;;;;;;;18.70;53.40;;;;;;5050439;28;1268;-72
2022/03/21 12:55:35;;;;;;;;;;;18.70;53.40;;;;;;5034746;28;1907;-72
2022/03/21 12:58:04;;;;;;;;;;;18.70;53.50;;;;;;5035047;28;1077;-72
2022/03/21 13:00:31;;;;;;;;;;;18.70;53.60;;;;;;5033709;28;1231;-72
2022/03/21 13:02:57;;;;;;;;;;;18.70;53.60;;;;;;5043670;28;1143;-72
2022/03/21 13:10:52;;;;;;;;;;;18.70;53.80;;;;;;5053658;28;641;-73
2022/03/21 13:13:18;;;;;;;;;;;18.70;53.90;;;;;;5053768;28;1212;-73
2022/03/21 13:15:43;;;;;;;;;;;18.70;53.90;;;;;;5053138;28;1894;-72
2022/03/21 13:18:09;;;;;;;;;;;18.70;54.00;;;;;;5053024;28;1006;-72
2022/03/21 13:20:38;;;;;;;;;;;18.60;54.00;;;;;;5054536;28;949;-72
2022/03/21 13:23:04;;;;;;;;;;;18.60;54.10;;;;;;5052529;28;1898;-71
2022/03/21 13:25:34;;;;;;;;;;;18.70;54.20;;;;;;5052248;28;1333;-72
2022/03/21 13:28:09;;;;;;;;;;;18.60;54.20;;;;;;5052846;28;858;-71
2022/03/21 13:30:35;;;;;;;;;;;18.60;54.20;;;;;;5053893;28;787;-72
2022/03/21 13:33:00;;;;;;;;;;;18.60;54.30;;;;;;5053025;28;902;-72
2022/03/21 13:35:26;;;;;;;;;;;18.60;54.30;;;;;;5052918;28;1902;-71
2022/03/21 13:38:04;;;;;;;;;;;18.60;54.30;;;;;;5054510;28;1216;-71
2022/03/21 13:40:30;;;;;;;;;;;18.60;54.40;;;;;;5054636;28;1115;-72
2022/03/21 13:43:13;;;;;;;;;;;18.60;54.50;;;;;;5054205;28;1077;-72
2022/03/21 13:45:42;;;;;;;;;;;18.60;54.50;;;;;;5052592;28;1045;-71
2022/03/21 13:48:07;;;;;;;;;;;18.60;54.50;;;;;;5054151;28;842;-72
2022/03/21 13:50:38;;;;;;;;;;;18.60;54.60;;;;;;5052901;28;862;-71
2022/03/21 13:53:04;;;;;;;;;;;18.50;54.60;;;;;;5053996;28;1122;-70
2022/03/21 13:55:30;;;;;;;;;;;18.60;54.70;;;;;;5035796;28;1977;-72
2022/03/21 13:57:59;;;;;;;;;;;18.60;54.70;;;;;;5053898;28;843;-72
2022/03/21 14:00:28;;;;;;;;;;;18.60;54.70;;;;;;5036014;28;1264;-73
2022/03/21 14:02:54;;;;;;;;;;;18.50;54.80;;;;;;5053682;28;1165;-73
2022/03/21 14:05:20;;;;;;;;;;;18.50;54.80;;;;;;5052478;28;1177;-70
2022/03/21 14:07:50;;;;;;;;;;;18.50;54.80;;;;;;5051367;28;2185;-71
2022/03/21 14:10:19;;;;;;;;;;;18.50;54.90;;;;;;5049436;28;1650;-70
2022/03/21 14:12:49;;;;;;;;;;;18.50;54.90;;;;;;5048990;28;1469;-71
2022/03/21 14:15:14;;;;;;;;;;;18.50;55.00;;;;;;5049118;28;1964;-70
2022/03/21 14:17:40;;;;;;;;;;;18.50;55.00;;;;;;5043898;28;1458;-71
2022/03/21 14:20:06;;;;;;;;;;;18.50;55.00;;;;;;5053726;28;1517;-70
2022/03/21 14:22:31;;;;;;;;;;;18.50;55.10;;;;;;5053472;28;1069;-70
2022/03/21 14:24:56;;;;;;;;;;;18.50;55.20;;;;;;5053361;28;1302;-70
2022/03/21 14:27:22;;;;;;;;;;;18.50;55.20;;;;;;5053115;28;883;-70
2022/03/21 14:29:47;;;;;;;;;;;18.50;55.20;;;;;;5051713;28;934;-70
2022/03/21 14:32:13;;;;;;;;;;;18.50;55.30;;;;;;5053130;28;1243;-70
2022/03/21 14:34:38;;;;;;;;;;;18.50;55.30;;;;;;5053222;28;2321;-70
2022/03/21 14:37:04;;;;;;;;;;;18.50;55.30;;;;;;5052869;28;1106;-71
2022/03/21 14:39:29;;;;;;;;;;;18.50;55.40;;;;;;5053248;28;878;-71
2022/03/21 14:41:54;;;;;;;;;;;18.50;55.40;;;;;;5053010;28;953;-70
2022/03/21 14:44:22;;;;;;;;;;;18.50;55.40;;;;;;5052010;28;1192;-71
2022/03/21 14:46:48;;;;;;;;;;;18.50;55.50;;;;;;5051728;28;843;-70
2022/03/21 14:49:13;;;;;;;;;;;18.50;55.50;;;;;;5052045;28;1037;-70
2022/03/21 14:51:38;;;;;;;;;;;18.40;55.50;;;;;;5051987;28;1005;-71
2022/03/21 14:54:04;;;;;;;;;;;18.40;55.50;;;;;;5048437;28;1967;-70
2022/03/21 14:56:30;;;;;;;;;;;18.40;55.50;;;;;;5048170;28;864;-70
2022/03/21 14:58:56;;;;;;;;;;;18.40;55.60;;;;;;5033178;28;978;-70
2022/03/21 15:01:21;;;;;;;;;;;18.40;55.60;;;;;;5033024;28;935;-70
2022/03/21 15:03:47;;;;;;;;;;;18.40;55.60;;;;;;5051745;28;1566;-70